createdAt,value
2019-05-11T00:00:23.538Z,58.30
2019-05-11T00:01:31.120Z,58.40
2019-05-11T00:02:38.328Z,58.50
2019-05-11T00:03:45.901Z,58.50
2019-05-11T00:04:53.141Z,58.60
2019-05-11T00:06:00.743Z,58.50
2019-05-11T00:07:08.044Z,58.50
2019-05-11T00:08:15.677Z,58.40
2019-05-11T00:09:23.230Z,58.60
2019-05-11T00:10:30.815Z,58.60
2019-05-11T00:11:38.061Z,58.60
2019-05-11T00:12:45.687Z,58.70
2019-05-11T00:13:52.971Z,59.40
2019-05-11T00:15:00.543Z,59.00
2019-05-11T00:16:07.828Z,59.00
2019-05-11T00:17:15.550Z,59.10
2019-05-11T00:18:22.776Z,59.20
2019-05-11T00:19:30.368Z,59.30
2019-05-11T00:20:37.601Z,59.30
2019-05-11T00:21:45.190Z,59.40
2019-05-11T00:22:52.415Z,59.50
2019-05-11T00:23:59.987Z,59.50
2019-05-11T00:25:08.106Z,59.40
2019-05-11T00:26:15.845Z,59.40
2019-05-11T00:27:23.057Z,59.50
2019-05-11T00:28:30.821Z,59.50
2019-05-11T00:29:38.110Z,59.60
2019-05-11T00:30:45.678Z,59.60
2019-05-11T00:31:52.890Z,59.70
2019-05-11T00:33:01.275Z,59.70
2019-05-11T00:34:08.508Z,59.70
2019-05-11T00:35:16.125Z,59.70
2019-05-11T00:36:23.354Z,59.80
2019-05-11T00:37:30.952Z,59.80
2019-05-11T00:38:38.179Z,59.80
2019-05-11T00:39:45.793Z,60.00
2019-05-11T00:40:52.988Z,60.00
2019-05-11T00:42:00.579Z,60.00
2019-05-11T00:43:07.770Z,60.00
2019-05-11T00:44:15.340Z,60.10
2019-05-11T00:45:22.598Z,60.20
2019-05-11T00:46:30.197Z,60.20
2019-05-11T00:47:37.421Z,60.10
2019-05-11T00:48:45.057Z,60.20
2019-05-11T00:49:52.307Z,60.00
2019-05-11T00:50:59.907Z,60.10
2019-05-11T00:52:07.137Z,60.10
2019-05-11T00:53:14.753Z,60.20
2019-05-11T00:54:23.038Z,60.30
2019-05-11T00:55:30.629Z,60.30
2019-05-11T00:56:37.866Z,60.50
2019-05-11T00:57:45.446Z,60.50
2019-05-11T00:58:52.647Z,60.60
2019-05-11T01:00:00.151Z,60.70
2019-05-11T01:01:07.374Z,60.90
2019-05-11T01:02:14.989Z,60.80
2019-05-11T01:03:23.167Z,61.00
2019-05-11T01:04:30.767Z,61.00
2019-05-11T01:05:37.976Z,61.10
2019-05-11T01:06:45.536Z,61.30
2019-05-11T01:07:52.760Z,61.40
2019-05-11T01:09:01.418Z,61.50
2019-05-11T01:10:22.930Z,61.60
2019-05-11T01:11:18.877Z,61.60
2019-05-11T01:12:26.108Z,61.70
2019-05-11T01:13:33.691Z,61.70
2019-05-11T01:14:40.930Z,61.80
2019-05-11T01:15:48.519Z,61.80
2019-05-11T01:16:55.756Z,61.80
2019-05-11T01:18:03.346Z,61.80
2019-05-11T01:19:10.539Z,61.80
2019-05-11T01:20:18.813Z,61.70
2019-05-11T01:21:26.158Z,61.70
2019-05-11T01:22:33.773Z,61.80
2019-05-11T01:23:40.969Z,61.90
2019-05-11T01:24:48.555Z,61.90
2019-05-11T01:25:55.765Z,62.30
2019-05-11T01:27:03.427Z,62.40
2019-05-11T01:28:10.654Z,62.70
2019-05-11T01:29:18.268Z,63.00
2019-05-11T01:30:26.663Z,62.80
2019-05-11T01:31:34.473Z,62.90
2019-05-11T01:32:41.686Z,62.90
2019-05-11T01:33:49.260Z,62.90
2019-05-11T01:34:56.495Z,62.90
2019-05-11T01:36:04.070Z,63.10
2019-05-11T01:37:11.306Z,63.50
2019-05-11T01:38:18.881Z,63.70
2019-05-11T01:39:26.164Z,63.60
2019-05-11T01:40:33.739Z,64.60
2019-05-11T01:41:40.944Z,63.90
2019-05-11T01:42:48.547Z,64.10
2019-05-11T01:43:55.770Z,64.20
2019-05-11T01:45:03.357Z,64.30
2019-05-11T01:46:10.581Z,64.20
2019-05-11T01:47:18.187Z,64.40
2019-05-11T01:48:25.441Z,64.50
2019-05-11T01:49:33.069Z,64.70
2019-05-11T01:50:40.340Z,64.70
2019-05-11T01:51:47.879Z,64.80
2019-05-11T01:52:55.092Z,64.70
2019-05-11T01:54:02.696Z,64.60
2019-05-11T01:55:10.247Z,64.60
2019-05-11T01:56:17.820Z,64.60
2019-05-11T01:57:25.047Z,64.80
2019-05-11T01:58:32.780Z,64.70
2019-05-11T01:59:39.990Z,64.50
2019-05-11T02:00:47.617Z,64.50
2019-05-11T02:01:54.829Z,64.50
2019-05-11T02:03:02.418Z,64.50
2019-05-11T02:04:09.642Z,64.60
2019-05-11T02:05:32.516Z,64.60
2019-05-11T02:06:39.771Z,64.60
2019-05-11T02:07:47.370Z,64.60
2019-05-11T02:08:54.595Z,64.80
2019-05-11T02:10:02.198Z,65.00
2019-05-11T02:11:15.847Z,65.20
2019-05-11T02:12:18.720Z,65.20
2019-05-11T02:13:25.918Z,65.20
2019-05-11T02:14:33.488Z,65.20
2019-05-11T02:15:40.695Z,65.40
2019-05-11T02:16:48.256Z,65.40
2019-05-11T02:17:55.507Z,65.50
2019-05-11T02:19:03.099Z,66.40
2019-05-11T02:20:10.814Z,65.50
2019-05-11T02:21:18.404Z,65.60
2019-05-11T02:22:25.643Z,65.80
2019-05-11T02:23:33.246Z,65.80
2019-05-11T02:24:40.452Z,65.70
2019-05-11T02:25:48.051Z,65.80
2019-05-11T02:26:55.281Z,65.90
2019-05-11T02:28:02.911Z,65.80
2019-05-11T02:29:10.112Z,65.80
2019-05-11T02:30:17.876Z,65.70
2019-05-11T02:31:25.091Z,65.80
2019-05-11T02:32:32.656Z,65.80
2019-05-11T02:33:39.923Z,65.80
2019-05-11T02:34:47.509Z,65.90
2019-05-11T02:35:54.734Z,66.00
2019-05-11T02:37:02.323Z,66.30
2019-05-11T02:38:09.549Z,66.30
2019-05-11T02:39:17.121Z,66.50
2019-05-11T02:40:25.127Z,66.50
2019-05-11T02:41:37.069Z,66.50
2019-05-11T02:42:41.928Z,66.70
2019-05-11T02:43:49.547Z,66.90
2019-05-11T02:44:56.768Z,66.50
2019-05-11T02:46:04.376Z,66.90
2019-05-11T02:47:11.596Z,67.00
2019-05-11T02:48:19.170Z,67.10
2019-05-11T02:49:28.158Z,67.20
2019-05-11T02:50:37.342Z,67.90
2019-05-11T02:51:46.424Z,67.50
2019-05-11T02:52:54.503Z,67.60
2019-05-11T02:54:04.026Z,68.10
2019-05-11T02:55:12.111Z,68.10
2019-05-11T02:56:19.345Z,68.00
2019-05-11T02:57:26.963Z,68.00
2019-05-11T02:58:34.187Z,68.00
2019-05-11T02:59:41.758Z,68.40
2019-05-11T03:00:49.673Z,68.10
2019-05-11T03:01:57.244Z,68.60
2019-05-11T03:03:04.485Z,68.80
2019-05-11T03:04:12.057Z,68.60
2019-05-11T03:05:20.257Z,68.90
2019-05-11T03:06:27.855Z,68.80
2019-05-11T03:07:35.069Z,69.00
2019-05-11T03:08:42.687Z,69.20
2019-05-11T03:09:49.908Z,69.20
2019-05-11T03:10:57.497Z,69.60
2019-05-11T03:12:04.736Z,69.40
2019-05-11T03:13:12.290Z,68.80
2019-05-11T03:14:19.516Z,69.60
2019-05-11T03:15:27.108Z,69.30
2019-05-11T03:16:34.346Z,69.60
2019-05-11T03:17:41.921Z,69.60
2019-05-11T03:18:49.116Z,69.60
2019-05-11T03:19:56.679Z,69.80
2019-05-11T03:21:03.912Z,69.60
2019-05-11T03:22:11.521Z,69.50
2019-05-11T03:23:18.734Z,69.60
2019-05-11T03:24:26.323Z,69.50
2019-05-11T03:25:33.529Z,69.90
2019-05-11T03:26:41.103Z,69.80
2019-05-11T03:27:48.369Z,70.00
2019-05-11T03:28:57.128Z,69.90
2019-05-11T03:30:04.502Z,70.00
2019-05-11T03:31:12.117Z,70.20
2019-05-11T03:32:19.341Z,70.20
2019-05-11T03:33:26.886Z,70.40
2019-05-11T03:34:34.110Z,70.60
2019-05-11T03:35:41.867Z,70.50
2019-05-11T03:36:49.218Z,70.60
2019-05-11T03:37:56.854Z,70.40
2019-05-11T03:39:04.901Z,70.60
2019-05-11T03:40:13.701Z,70.60
2019-05-11T03:41:20.927Z,70.60
2019-05-11T03:42:28.514Z,70.60
2019-05-11T03:43:35.739Z,70.70
2019-05-11T03:44:43.335Z,70.30
2019-05-11T03:45:50.534Z,70.20
2019-05-11T03:46:58.121Z,70.30
2019-05-11T03:48:06.412Z,70.20
2019-05-11T03:49:15.065Z,70.90
2019-05-11T03:50:22.289Z,70.90
2019-05-11T03:51:29.889Z,70.80
2019-05-11T03:52:37.133Z,70.80
2019-05-11T03:53:44.702Z,70.90
2019-05-11T03:54:51.927Z,71.20
2019-05-11T03:55:59.499Z,71.20
2019-05-11T03:57:06.706Z,71.40
2019-05-11T03:58:14.293Z,71.80
2019-05-11T03:59:21.518Z,72.00
2019-05-11T04:00:29.089Z,72.20
2019-05-11T04:01:36.339Z,71.80
2019-05-11T04:02:43.983Z,72.10
2019-05-11T04:03:51.201Z,72.40
2019-05-11T04:04:58.789Z,72.30
2019-05-11T04:06:06.012Z,72.50
2019-05-11T04:07:13.585Z,72.80
2019-05-11T04:08:20.780Z,73.00
2019-05-11T04:09:28.382Z,73.00
2019-05-11T04:10:35.598Z,73.00
2019-05-11T04:11:44.259Z,73.50
2019-05-11T04:12:51.481Z,72.90
2019-05-11T04:13:59.098Z,72.90
2019-05-11T04:15:08.183Z,73.10
2019-05-11T04:16:15.801Z,73.50
2019-05-11T04:17:23.654Z,73.50
2019-05-11T04:18:31.214Z,73.00
2019-05-11T04:19:38.442Z,73.40
2019-05-11T04:20:46.023Z,73.60
2019-05-11T04:21:53.232Z,73.70
2019-05-11T04:23:03.912Z,73.90
2019-05-11T04:24:11.133Z,74.00
2019-05-11T04:25:19.667Z,74.00
2019-05-11T04:26:26.865Z,74.00
2019-05-11T04:27:34.447Z,74.00
2019-05-11T04:28:41.685Z,74.10
2019-05-11T04:29:49.288Z,74.00
2019-05-11T04:30:56.530Z,74.00
2019-05-11T04:32:04.122Z,74.20
2019-05-11T04:33:11.314Z,74.20
2019-05-11T04:34:18.929Z,74.00
2019-05-11T04:35:26.139Z,73.80
2019-05-11T04:36:33.733Z,74.20
2019-05-11T04:37:40.975Z,74.30
2019-05-11T04:38:48.585Z,74.30
2019-05-11T04:39:55.811Z,74.20
2019-05-11T04:41:03.413Z,74.10
2019-05-11T04:42:10.622Z,74.20
2019-05-11T04:43:18.228Z,74.00
2019-05-11T04:44:25.439Z,74.10
2019-05-11T04:45:33.015Z,74.10
2019-05-11T04:46:40.202Z,74.30
2019-05-11T04:47:47.772Z,74.20
2019-05-11T04:48:55.116Z,74.30
2019-05-11T04:50:02.691Z,74.60
2019-05-11T04:51:09.918Z,74.50
2019-05-11T04:52:17.491Z,74.40
2019-05-11T04:53:24.695Z,74.50
2019-05-11T04:54:32.284Z,74.60
2019-05-11T04:55:39.493Z,74.60
2019-05-11T04:56:47.083Z,74.60
2019-05-11T04:57:54.341Z,74.40
2019-05-11T04:59:01.920Z,74.30
2019-05-11T05:00:09.941Z,74.50
2019-05-11T05:01:17.559Z,74.60
2019-05-11T05:02:27.257Z,74.50
2019-05-11T05:03:40.988Z,74.20
2019-05-11T05:04:42.987Z,74.10
2019-05-11T05:05:50.577Z,74.20
2019-05-11T05:06:59.764Z,74.30
2019-05-11T05:08:09.709Z,74.40
2019-05-11T05:09:16.015Z,74.50
2019-05-11T05:10:23.575Z,74.20
2019-05-11T05:11:36.830Z,74.10
2019-05-11T05:12:40.089Z,74.40
2019-05-11T05:13:47.336Z,74.30
2019-05-11T05:14:54.884Z,74.40
2019-05-11T05:16:02.091Z,74.60
2019-05-11T05:17:09.979Z,74.50
2019-05-11T05:18:17.215Z,74.50
2019-05-11T05:19:25.947Z,74.10
2019-05-11T05:20:33.147Z,74.20
2019-05-11T05:21:40.731Z,74.60
2019-05-11T05:22:48.010Z,74.50
2019-05-11T05:23:55.613Z,74.00
2019-05-11T05:25:02.839Z,74.10
2019-05-11T05:26:10.455Z,74.10
2019-05-11T05:27:17.668Z,74.20
2019-05-11T05:28:25.254Z,73.70
2019-05-11T05:29:32.523Z,74.10
2019-05-11T05:30:40.082Z,74.00
2019-05-11T05:31:47.318Z,73.80
2019-05-11T05:32:54.880Z,73.40
2019-05-11T05:34:02.123Z,73.20
2019-05-11T05:35:09.719Z,73.40
2019-05-11T05:36:16.962Z,73.50
2019-05-11T05:37:24.783Z,73.50
2019-05-11T05:38:32.114Z,74.00
2019-05-11T05:39:39.721Z,74.00
2019-05-11T05:40:46.930Z,73.90
2019-05-11T05:41:57.019Z,73.80
2019-05-11T05:43:03.420Z,74.00
2019-05-11T05:44:10.994Z,73.90
2019-05-11T05:45:18.323Z,74.00
2019-05-11T05:46:25.982Z,73.60
2019-05-11T05:47:33.193Z,73.70
2019-05-11T05:48:40.779Z,74.40
2019-05-11T05:49:47.990Z,74.20
2019-05-11T05:50:55.576Z,74.20
2019-05-11T05:52:02.827Z,74.20
2019-05-11T05:53:10.404Z,74.40
2019-05-11T05:54:17.619Z,74.60
2019-05-11T05:55:25.202Z,74.50
2019-05-11T05:56:32.428Z,74.30
2019-05-11T05:57:40.044Z,74.20
2019-05-11T05:58:47.268Z,74.60
2019-05-11T05:59:54.890Z,74.30
2019-05-11T06:01:02.111Z,73.80
2019-05-11T06:02:09.726Z,73.90
2019-05-11T06:03:16.969Z,74.10
2019-05-11T06:04:24.538Z,74.50
2019-05-11T06:05:31.750Z,73.90
2019-05-11T06:06:39.320Z,73.90
2019-05-11T06:07:46.531Z,74.20
2019-05-11T06:08:54.124Z,74.00
2019-05-11T06:10:01.319Z,74.10
2019-05-11T06:11:10.175Z,74.10
2019-05-11T06:12:17.386Z,74.00
2019-05-11T06:13:24.961Z,74.10
2019-05-11T06:14:32.214Z,74.10
2019-05-11T06:15:39.815Z,74.20
2019-05-11T06:16:47.032Z,74.10
2019-05-11T06:17:54.611Z,74.00
2019-05-11T06:19:01.837Z,73.90
2019-05-11T06:20:09.858Z,73.80
2019-05-11T06:21:17.191Z,73.90
2019-05-11T06:22:24.764Z,73.90
2019-05-11T06:23:31.958Z,73.70
2019-05-11T06:24:39.542Z,73.60
2019-05-11T06:25:46.759Z,73.50
2019-05-11T06:26:54.326Z,73.50
2019-05-11T06:28:02.620Z,73.70
2019-05-11T06:29:10.202Z,73.60
2019-05-11T06:30:18.506Z,73.40
2019-05-11T06:31:26.094Z,73.10
2019-05-11T06:32:33.308Z,73.20
2019-05-11T06:33:40.890Z,73.50
2019-05-11T06:34:48.111Z,73.20
2019-05-11T06:35:55.688Z,72.80
2019-05-11T06:37:02.913Z,72.60
2019-05-11T06:38:10.500Z,72.60
2019-05-11T06:39:17.725Z,72.50
2019-05-11T06:40:28.356Z,72.40
2019-05-11T06:41:34.249Z,72.10
2019-05-11T06:42:41.856Z,72.00
2019-05-11T06:44:01.401Z,72.00
2019-05-11T06:44:58.343Z,72.00
2019-05-11T06:46:05.566Z,72.00
2019-05-11T06:47:13.215Z,71.90
2019-05-11T06:48:20.422Z,72.10
2019-05-11T06:49:28.030Z,71.90
2019-05-11T06:50:35.234Z,71.90
2019-05-11T06:51:42.836Z,71.90
2019-05-11T06:52:50.724Z,72.10
2019-05-11T06:53:58.297Z,71.90
2019-05-11T06:55:05.732Z,72.00
2019-05-11T06:56:13.301Z,72.00
2019-05-11T06:57:20.543Z,71.90
2019-05-11T06:58:28.131Z,71.90
2019-05-11T06:59:35.450Z,72.00
2019-05-11T07:00:43.062Z,72.00
2019-05-11T07:01:50.315Z,72.00
2019-05-11T07:02:57.915Z,72.00
2019-05-11T07:04:06.720Z,71.90
2019-05-11T07:05:14.498Z,71.90
2019-05-11T07:06:25.566Z,71.80
2019-05-11T07:07:45.269Z,71.60
2019-05-11T07:08:39.926Z,71.50
2019-05-11T07:09:47.512Z,71.60
2019-05-11T07:10:54.742Z,71.70
2019-05-11T07:12:02.435Z,71.80
2019-05-11T07:13:10.425Z,71.80
2019-05-11T07:14:21.062Z,71.90
2019-05-11T07:15:26.935Z,72.00
2019-05-11T07:16:34.525Z,72.00
2019-05-11T07:17:41.740Z,71.70
2019-05-11T07:18:49.315Z,72.00
2019-05-11T07:19:56.551Z,72.90
2019-05-11T07:21:04.154Z,72.00
2019-05-11T07:22:11.364Z,71.90
2019-05-11T07:23:18.957Z,71.50
2019-05-11T07:24:26.186Z,71.30
2019-05-11T07:25:33.791Z,71.10
2019-05-11T07:26:41.017Z,71.00
2019-05-11T07:27:48.588Z,71.00
2019-05-11T07:28:55.799Z,70.80
2019-05-11T07:30:03.377Z,71.00
2019-05-11T07:31:11.782Z,70.80
2019-05-11T07:32:24.944Z,70.70
2019-05-11T07:33:28.751Z,70.50
2019-05-11T07:34:38.373Z,70.80
2019-05-11T07:35:47.701Z,70.80
2019-05-11T07:36:54.695Z,70.90
2019-05-11T07:38:01.938Z,70.90
2019-05-11T07:39:09.928Z,70.90
2019-05-11T07:40:18.742Z,71.00
2019-05-11T07:41:28.131Z,71.20
2019-05-11T07:42:37.724Z,71.20
2019-05-11T07:43:44.949Z,71.30
2019-05-11T07:44:52.132Z,71.10
2019-05-11T07:45:59.708Z,71.00
2019-05-11T07:47:07.922Z,71.00
2019-05-11T07:48:15.689Z,71.00
2019-05-11T07:49:23.523Z,71.10
2019-05-11T07:50:31.433Z,71.30
2019-05-11T07:51:39.076Z,71.40
2019-05-11T07:52:48.340Z,70.80
2019-05-11T07:53:57.708Z,71.50
2019-05-11T07:55:05.202Z,71.60
2019-05-11T07:56:12.588Z,71.70
2019-05-11T07:57:20.158Z,71.70
2019-05-11T07:58:28.524Z,71.40
2019-05-11T07:59:38.155Z,71.30
2019-05-11T08:00:45.514Z,71.20
2019-05-11T08:01:53.117Z,71.20
2019-05-11T08:03:01.419Z,71.20
2019-05-11T08:04:09.005Z,71.40
2019-05-11T08:05:17.992Z,71.60
2019-05-11T08:06:25.700Z,71.60
2019-05-11T08:07:32.919Z,71.60
2019-05-11T08:08:40.535Z,71.80
2019-05-11T08:09:48.460Z,71.80
2019-05-11T08:10:58.484Z,72.20
2019-05-11T08:12:05.279Z,71.90
2019-05-11T08:13:12.940Z,71.80
2019-05-11T08:14:20.199Z,72.00
2019-05-11T08:15:28.431Z,71.80
2019-05-11T08:16:38.707Z,71.90
2019-05-11T08:17:45.178Z,71.90
2019-05-11T08:18:52.395Z,71.80
2019-05-11T08:19:59.994Z,72.00
2019-05-11T08:21:08.894Z,71.90
2019-05-11T08:22:20.439Z,71.60
2019-05-11T08:23:25.494Z,71.50
2019-05-11T08:24:33.079Z,70.90
2019-05-11T08:25:40.313Z,70.90
2019-05-11T08:26:48.181Z,70.90
2019-05-11T08:27:55.508Z,71.00
2019-05-11T08:29:03.102Z,71.00
2019-05-11T08:30:12.586Z,71.00
2019-05-11T08:31:20.196Z,71.10
2019-05-11T08:32:28.637Z,71.10
2019-05-11T08:33:38.692Z,71.20
2019-05-11T08:34:45.406Z,71.10
2019-05-11T08:35:52.994Z,71.10
2019-05-11T08:37:00.221Z,71.30
2019-05-11T08:38:08.809Z,71.70
2019-05-11T08:39:18.206Z,71.20
2019-05-11T08:40:25.609Z,71.00
2019-05-11T08:41:33.205Z,71.20
2019-05-11T08:42:40.814Z,72.10
2019-05-11T08:43:48.234Z,71.50
2019-05-11T08:45:11.743Z,72.10
2019-05-11T08:46:04.811Z,71.10
2019-05-11T08:47:12.478Z,70.40
2019-05-11T08:48:19.686Z,70.30
2019-05-11T08:49:28.648Z,70.70
2019-05-11T08:50:38.299Z,70.90
2019-05-11T08:51:47.654Z,70.90
2019-05-11T08:52:54.413Z,70.90
2019-05-11T08:54:01.981Z,71.40
2019-05-11T08:55:09.807Z,71.50
2019-05-11T08:56:18.849Z,70.70
2019-05-11T08:57:28.467Z,70.40
2019-05-11T08:58:37.829Z,70.00
2019-05-11T08:59:44.515Z,69.60
2019-05-11T09:00:52.478Z,69.70
2019-05-11T09:01:59.703Z,69.50
2019-05-11T09:03:08.574Z,68.80
2019-05-11T09:04:18.141Z,69.10
2019-05-11T09:05:25.191Z,69.00
2019-05-11T09:06:32.416Z,69.10
2019-05-11T09:07:40.001Z,68.10
2019-05-11T09:08:49.283Z,68.10
2019-05-11T09:09:58.622Z,68.20
2019-05-11T09:11:05.444Z,67.40
2019-05-11T09:12:13.062Z,67.90
2019-05-11T09:13:20.317Z,67.40
2019-05-11T09:14:28.982Z,66.70
2019-05-11T09:15:39.756Z,67.50
2019-05-11T09:16:45.584Z,66.70
2019-05-11T09:17:52.821Z,66.70
2019-05-11T09:19:00.391Z,66.80
2019-05-11T09:20:08.717Z,67.20
2019-05-11T09:21:18.986Z,66.50
2019-05-11T09:22:28.365Z,66.50
2019-05-11T09:23:39.795Z,65.90
2019-05-11T09:24:44.771Z,65.80
2019-05-11T09:25:52.423Z,65.20
2019-05-11T09:26:59.658Z,64.80
2019-05-11T09:28:08.593Z,64.70
2019-05-11T09:29:17.764Z,64.90
2019-05-11T09:30:25.207Z,65.10
2019-05-11T09:31:32.582Z,64.60
2019-05-11T09:32:40.200Z,64.50
2019-05-11T09:33:48.010Z,63.70
2019-05-11T09:34:58.006Z,63.80
2019-05-11T09:36:04.978Z,63.50
2019-05-11T09:37:12.732Z,63.80
2019-05-11T09:38:19.976Z,63.80
2019-05-11T09:39:28.182Z,63.70
2019-05-11T09:40:35.444Z,63.20
2019-05-11T09:41:43.020Z,63.10
2019-05-11T09:42:50.241Z,62.80
2019-05-11T09:43:58.698Z,62.80
2019-05-11T09:45:07.972Z,62.50
2019-05-11T09:46:18.953Z,62.40
2019-05-11T09:47:27.789Z,62.80
2019-05-11T09:48:34.956Z,63.00
2019-05-11T09:49:47.468Z,62.80
2019-05-11T09:50:51.399Z,62.60
2019-05-11T09:51:59.084Z,63.10
2019-05-11T09:53:08.531Z,63.60
2019-05-11T09:54:18.104Z,64.30
2019-05-11T09:55:24.952Z,64.70
2019-05-11T09:56:32.152Z,65.10
2019-05-11T09:57:39.770Z,65.30
2019-05-11T09:58:47.935Z,65.40
2019-05-11T09:59:58.123Z,65.30
2019-05-11T10:01:05.825Z,65.40
2019-05-11T10:02:13.411Z,65.60
2019-05-11T10:03:20.621Z,65.60
2019-05-11T10:04:28.964Z,65.30
2019-05-11T10:05:38.305Z,65.20
2019-05-11T10:06:47.841Z,65.50
2019-05-11T10:07:54.533Z,65.80
2019-05-11T10:09:02.120Z,65.90
2019-05-11T10:10:09.945Z,66.30
2019-05-11T10:11:19.026Z,66.20
2019-05-11T10:12:28.530Z,66.00
2019-05-11T10:13:38.256Z,65.80
2019-05-11T10:14:44.671Z,66.20
2019-05-11T10:16:03.619Z,66.50
2019-05-11T10:17:01.162Z,66.40
2019-05-11T10:18:08.838Z,64.70
2019-05-11T10:19:17.928Z,64.10
2019-05-11T10:20:25.600Z,64.20
2019-05-11T10:21:32.916Z,63.50
2019-05-11T10:22:40.507Z,62.70
2019-05-11T10:23:48.975Z,62.30
2019-05-11T10:24:58.245Z,62.10
2019-05-11T10:26:07.794Z,62.30
2019-05-11T10:27:15.005Z,62.70
2019-05-11T10:28:23.278Z,63.00
2019-05-11T10:29:33.808Z,62.20
2019-05-11T10:30:39.755Z,62.20
2019-05-11T10:31:48.034Z,62.20
2019-05-11T10:32:57.622Z,62.40
2019-05-11T10:34:05.784Z,62.50
2019-05-11T10:35:13.219Z,62.50
2019-05-11T10:36:20.823Z,62.40
2019-05-11T10:37:28.345Z,63.00
2019-05-11T10:38:37.950Z,62.90
2019-05-11T10:39:44.899Z,62.90
2019-05-11T10:40:52.483Z,63.40
2019-05-11T10:41:59.760Z,63.70
2019-05-11T10:43:08.045Z,63.90
2019-05-11T10:44:15.380Z,64.10
2019-05-11T10:45:22.978Z,64.00
2019-05-11T10:46:30.189Z,64.80
2019-05-11T10:47:38.350Z,65.00
2019-05-11T10:48:47.969Z,64.60
2019-05-11T10:49:55.055Z,65.60
2019-05-11T10:51:02.289Z,64.80
2019-05-11T10:52:09.938Z,63.90
2019-05-11T10:53:18.470Z,64.00
2019-05-11T10:54:28.825Z,64.50
2019-05-11T10:55:38.702Z,64.00
2019-05-11T10:56:48.144Z,63.90
2019-05-11T10:57:55.066Z,63.60
2019-05-11T10:59:02.668Z,63.20
2019-05-11T11:00:12.265Z,62.90
2019-05-11T11:01:19.850Z,62.20
2019-05-11T11:02:27.757Z,62.10
2019-05-11T11:03:37.681Z,61.20
2019-05-11T11:04:44.557Z,61.00
2019-05-11T11:05:52.128Z,61.20
2019-05-11T11:06:59.358Z,60.90
2019-05-11T11:08:08.265Z,60.70
2019-05-11T11:09:17.727Z,60.80
2019-05-11T11:10:25.028Z,60.90
2019-05-11T11:11:32.293Z,61.10
2019-05-11T11:12:39.944Z,61.30
2019-05-11T11:13:48.021Z,61.70
2019-05-11T11:14:55.939Z,62.10
2019-05-11T11:16:03.162Z,61.80
2019-05-11T11:17:10.764Z,61.80
2019-05-11T11:18:18.914Z,60.90
2019-05-11T11:19:28.983Z,61.20
2019-05-11T11:20:38.245Z,61.50
2019-05-11T11:21:45.058Z,61.40
2019-05-11T11:22:52.371Z,61.20
2019-05-11T11:23:59.969Z,61.20
2019-05-11T11:25:08.022Z,61.30
2019-05-11T11:26:15.609Z,62.20
2019-05-11T11:27:22.848Z,62.10
2019-05-11T11:28:30.437Z,61.80
2019-05-11T11:29:38.833Z,61.60
2019-05-11T11:30:48.091Z,61.50
2019-05-11T11:31:55.448Z,61.70
2019-05-11T11:33:03.044Z,62.00
2019-05-11T11:34:10.268Z,60.40
2019-05-11T11:35:18.770Z,60.40
2019-05-11T11:36:28.373Z,57.90
2019-05-11T11:37:38.447Z,57.50
2019-05-11T11:38:45.052Z,57.40
2019-05-11T11:39:52.642Z,56.10
2019-05-11T11:40:59.880Z,55.90
2019-05-11T11:42:08.386Z,53.40
2019-05-11T11:43:17.901Z,53.20
2019-05-11T11:44:25.041Z,53.10
2019-05-11T11:45:32.263Z,53.50
2019-05-11T11:46:51.323Z,53.40
2019-05-11T11:47:49.454Z,53.10
2019-05-11T11:48:58.174Z,53.10
2019-05-11T11:50:09.161Z,52.60
2019-05-11T11:51:18.534Z,51.90
2019-05-11T11:52:25.221Z,51.90
2019-05-11T11:53:34.507Z,51.90
2019-05-11T11:54:41.713Z,52.10
2019-05-11T11:55:49.366Z,51.80
2019-05-11T11:56:58.766Z,51.70
2019-05-11T11:58:08.089Z,51.60
2019-05-11T11:59:14.847Z,51.90
2019-05-11T12:00:23.168Z,51.50
2019-05-11T12:01:30.413Z,51.30
2019-05-11T12:02:38.781Z,51.10
2019-05-11T12:03:48.468Z,51.00
2019-05-11T12:04:55.447Z,50.40
2019-05-11T12:06:02.674Z,50.80
2019-05-11T12:07:10.275Z,50.40
2019-05-11T12:08:18.883Z,50.80
2019-05-11T12:09:28.633Z,50.80
2019-05-11T12:10:37.796Z,50.60
2019-05-11T12:11:44.912Z,50.50
2019-05-11T12:12:52.136Z,50.40
2019-05-11T12:13:59.755Z,50.70
2019-05-11T12:15:08.887Z,50.20
2019-05-11T12:16:17.962Z,50.10
2019-05-11T12:17:25.539Z,49.80
2019-05-11T12:18:33.204Z,49.80
2019-05-11T12:19:40.411Z,48.90
2019-05-11T12:20:48.204Z,48.50
2019-05-11T12:21:57.429Z,47.50
2019-05-11T12:23:04.777Z,46.20
2019-05-11T12:24:12.000Z,45.90
2019-05-11T12:25:19.586Z,46.40
2019-05-11T12:26:28.218Z,46.10
2019-05-11T12:27:38.113Z,46.20
2019-05-11T12:28:44.773Z,46.00
2019-05-11T12:29:52.363Z,46.10
2019-05-11T12:30:59.588Z,46.20
2019-05-11T12:32:09.842Z,46.20
2019-05-11T12:33:18.751Z,46.40
2019-05-11T12:34:28.319Z,47.20
2019-05-11T12:35:37.603Z,47.00
2019-05-11T12:36:45.019Z,47.00
2019-05-11T12:37:52.243Z,47.30
2019-05-11T12:38:59.907Z,47.70
2019-05-11T12:40:09.096Z,48.70
2019-05-11T12:41:19.009Z,48.30
2019-05-11T12:42:25.754Z,48.50
2019-05-11T12:43:33.332Z,48.40
2019-05-11T12:44:40.580Z,49.00
2019-05-11T12:45:48.319Z,48.70
2019-05-11T12:46:58.151Z,48.60
2019-05-11T12:48:04.855Z,48.50
2019-05-11T12:49:12.053Z,48.20
2019-05-11T12:50:20.249Z,47.80
2019-05-11T12:51:27.787Z,47.70
2019-05-11T12:52:35.330Z,47.50
2019-05-11T12:53:42.543Z,47.30
2019-05-11T12:54:50.183Z,47.30
2019-05-11T12:55:58.909Z,47.00
2019-05-11T12:57:07.997Z,47.00
2019-05-11T12:58:17.969Z,47.00
2019-05-11T12:59:24.568Z,46.50
2019-05-11T13:00:31.780Z,46.30
2019-05-11T13:01:39.352Z,46.30
2019-05-11T13:02:48.502Z,46.40
2019-05-11T13:03:57.892Z,46.50
2019-05-11T13:05:05.109Z,46.40
2019-05-11T13:06:13.985Z,46.50
2019-05-11T13:07:21.256Z,46.40
2019-05-11T13:08:28.874Z,46.40
2019-05-11T13:09:37.966Z,47.10
2019-05-11T13:10:47.724Z,46.70
2019-05-11T13:11:54.886Z,47.10
2019-05-11T13:13:02.850Z,47.10
2019-05-11T13:14:10.239Z,46.80
2019-05-11T13:15:18.021Z,46.70
2019-05-11T13:16:25.232Z,46.60
2019-05-11T13:17:36.998Z,46.70
2019-05-11T13:18:41.710Z,46.70
2019-05-11T13:19:49.308Z,46.50
2019-05-11T13:20:58.598Z,46.20
2019-05-11T13:22:07.771Z,45.90
2019-05-11T13:23:14.740Z,45.90
2019-05-11T13:24:22.325Z,45.90
2019-05-11T13:25:29.564Z,45.70
2019-05-11T13:26:37.978Z,45.30
2019-05-11T13:27:45.471Z,45.00
2019-05-11T13:28:53.057Z,45.20
2019-05-11T13:30:00.285Z,45.40
2019-05-11T13:31:08.353Z,45.60
2019-05-11T13:32:15.695Z,45.90
2019-05-11T13:33:23.267Z,46.20
2019-05-11T13:34:31.671Z,46.10
2019-05-11T13:35:39.235Z,46.10
2019-05-11T13:36:48.730Z,46.00
2019-05-11T13:37:55.776Z,46.30
2019-05-11T13:39:04.619Z,46.30
2019-05-11T13:40:12.638Z,46.50
2019-05-11T13:41:19.838Z,46.50
2019-05-11T13:42:27.823Z,46.30
2019-05-11T13:43:38.435Z,46.10
2019-05-11T13:44:47.711Z,45.70
2019-05-11T13:45:54.409Z,45.30
2019-05-11T13:47:01.996Z,45.50
2019-05-11T13:48:09.226Z,45.40
2019-05-11T13:49:17.866Z,45.20
2019-05-11T13:50:26.271Z,45.20
2019-05-11T13:51:33.855Z,45.40
2019-05-11T13:52:41.051Z,45.40
2019-05-11T13:53:48.639Z,45.70
2019-05-11T13:54:57.889Z,45.70
2019-05-11T13:56:05.145Z,45.40
2019-05-11T13:57:12.386Z,45.00
2019-05-11T13:58:20.212Z,44.80
2019-05-11T13:59:28.069Z,44.90
2019-05-11T14:00:37.870Z,45.10
2019-05-11T14:01:44.746Z,45.10
2019-05-11T14:02:52.332Z,44.80
2019-05-11T14:03:59.508Z,44.60
2019-05-11T14:05:08.747Z,44.20
2019-05-11T14:06:18.395Z,44.30
2019-05-11T14:07:27.571Z,44.70
2019-05-11T14:08:34.932Z,44.20
2019-05-11T14:09:42.512Z,44.40
2019-05-11T14:11:08.618Z,44.50
2019-05-11T14:12:18.187Z,44.50
2019-05-11T14:13:25.311Z,44.20
2019-05-11T14:14:32.899Z,44.60
2019-05-11T14:15:40.107Z,44.80
2019-05-11T14:16:48.522Z,44.80
2019-05-11T14:18:05.695Z,44.70
2019-05-11T14:20:48.460Z,44.70
2019-05-11T14:21:58.102Z,44.70
2019-05-11T14:23:05.052Z,44.70
2019-05-11T14:24:12.997Z,44.80
2019-05-11T14:25:20.223Z,44.60
2019-05-11T14:26:28.165Z,44.60
2019-05-11T14:27:35.529Z,44.70
2019-05-11T14:29:01.259Z,44.70
2019-05-11T14:30:10.223Z,44.90
2019-05-11T14:31:18.873Z,45.10
2019-05-11T14:32:28.445Z,45.00
2019-05-11T14:33:53.683Z,45.00
2019-05-11T14:35:00.923Z,44.80
2019-05-11T14:36:08.782Z,45.00